Time;durP1;ratioP1;P1;durP2;ratioP2;P2;SDS_P1;SDS_P2;PMS_P1;PMS_P2;Temp;Humidity;BMP_temperature;BMP_pressure;BME280_temperature;BME280_humidity;BME280_pressure;Samples;Min_cycle;Max_cycle;Signal;HPM_P1;HPM_P2
2022/05/23 00:02:09;;;;;;;5.47;2.60;;;;;;;-146.19;100.00;58918.88;5064278;28;20451;-53
2022/05/23 00:04:37;;;;;;;;;;;;;;;-146.19;100.00;58918.88;5066739;28;20101;-54
2022/05/23 00:07:10;;;;;;;4.78;2.67;;;;;;;-146.19;100.00;58918.88;5066705;28;19966;-55
2022/05/23 00:09:39;;;;;;;3.80;2.53;;;;;;;-146.19;100.00;58918.88;5066772;28;20471;-56
2022/05/23 00:12:08;;;;;;;3.65;2.60;;;;;;;-146.19;100.00;58918.88;5066017;28;20072;-53
2022/05/23 00:14:37;;;;;;;4.55;2.40;;;;;;;-146.19;100.00;58918.88;5064481;28;20071;-55
2022/05/23 00:17:06;;;;;;;4.82;2.53;;;;;;;-146.19;100.00;58918.88;5067148;28;20087;-53
2022/05/23 00:19:42;;;;;;;4.90;2.78;;;;;;;-146.19;100.00;58918.88;5066047;28;20443;-54
2022/05/23 00:22:10;;;;;;;4.20;2.33;;;;;;;-146.19;100.00;58918.88;5061869;28;20091;-54
2022/05/23 00:24:41;;;;;;;7.22;2.55;;;;;;;-146.19;100.00;58918.88;5066708;28;20094;-51
2022/05/23 00:27:10;;;;;;;10.02;2.53;;;;;;;-146.19;100.00;58918.88;5064861;28;20064;-52
2022/05/23 00:29:38;;;;;;;4.32;2.53;;;;;;;-146.19;100.00;58918.88;5064892;28;20064;-57
2022/05/23 00:37:40;;;;;;;4.60;2.60;;;;;;;-146.19;100.00;58918.88;5065774;28;20067;-54
2022/05/23 00:40:16;;;;;;;4.00;2.38;;;;;;;-146.19;100.00;58918.88;5065822;28;20068;-50
2022/05/23 00:45:30;;;;;;;2.67;2.25;;;;;;;-146.19;100.00;58918.88;5065585;28;20643;-49
2022/05/23 00:47:59;;;;;;;3.72;2.28;;;;;;;-146.19;100.00;58918.88;5065890;28;20465;-51
2022/05/23 00:50:29;;;;;;;4.72;2.45;;;;;;;-146.19;100.00;58918.88;5062854;28;20075;-56
2022/05/23 00:52:58;;;;;;;3.72;2.40;;;;;;;-146.19;100.00;58918.88;5067018;28;20178;-53
2022/05/23 00:55:29;;;;;;;4.07;2.40;;;;;;;-146.19;100.00;58918.88;5065909;28;20126;-53
2022/05/23 00:58:06;;;;;;;4.97;2.40;;;;;;;-146.19;100.00;58918.88;5060316;28;20096;-50
2022/05/23 01:00:35;;;;;;;3.63;2.58;;;;;;;-146.19;100.00;58918.88;5055640;28;20083;-52
2022/05/23 01:03:05;;;;;;;5.20;2.50;;;;;;;-146.19;100.00;58918.88;5066357;28;20510;-54
2022/05/23 01:05:36;;;;;;;;;;;;;;;-146.19;100.00;58918.88;5065492;28;20578;-53
2022/05/23 01:08:06;;;;;;;4.45;2.20;;;;;;;-146.19;100.00;58918.88;5061340;28;19939;-48
2022/05/23 01:10:36;;;;;;;4.67;2.43;;;;;;;-146.19;100.00;58918.88;5066686;28;20049;-55
2022/05/23 01:13:05;;;;;;;5.43;2.90;;;;;;;-146.19;100.00;58918.88;5066756;28;20065;-50
2022/05/23 01:15:34;;;;;;;4.13;2.50;;;;;;;-146.19;100.00;58918.88;5062433;28;20048;-56
2022/05/23 01:18:03;;;;;;;3.20;2.40;;;;;;;-146.19;100.00;58918.88;5061252;28;20064;-54
2022/05/23 01:20:31;;;;;;;3.78;2.15;;;;;;;-146.19;100.00;58918.88;5060767;28;20068;-53
2022/05/23 01:23:08;;;;;;;3.30;2.33;;;;;;;-146.19;100.00;58918.88;5063031;28;20056;-55
2022/05/23 01:25:40;;;;;;;4.80;2.50;;;;;;;-146.19;100.00;58918.88;5062237;28;20067;-48
2022/05/23 01:28:09;;;;;;;4.05;2.88;;;;;;;-146.19;100.00;58918.88;5064906;28;20084;-51
2022/05/23 01:30:39;;;;;;;4.32;3.05;;;;;;;-146.19;100.00;58918.88;5060468;28;20075;-54
2022/05/23 01:33:08;;;;;;;5.15;2.88;;;;;;;-146.19;100.00;58918.88;5064946;28;20494;-55
2022/05/23 01:35:37;;;;;;;4.43;2.92;;;;;;;-146.19;100.00;58918.88;5061538;28;20947;-49
2022/05/23 01:38:06;;;;;;;7.63;3.00;;;;;;;-146.19;100.00;58918.88;5059677;28;21305;-49
2022/05/23 01:40:34;;;;;;;8.38;2.90;;;;;;;-146.19;100.00;58918.88;5059889;28;20064;-56
2022/05/23 01:43:05;;;;;;;3.97;2.67;;;;;;;-146.19;100.00;58918.88;5057652;28;20084;-55
2022/05/23 01:45:40;;;;;;;5.07;2.70;;;;;;;-146.19;100.00;58918.88;5065343;28;20470;-53
2022/05/23 01:48:09;;;;;;;5.75;3.05;;;;;;;-146.19;100.00;58918.88;5066448;28;20518;-53
2022/05/23 01:50:37;;;;;;;5.55;2.75;;;;;;;-146.19;100.00;58918.88;5068249;28;20075;-52
2022/05/23 01:53:06;;;;;;;6.03;2.88;;;;;;;-146.19;100.00;58918.88;5065942;28;20049;-53
2022/05/23 01:55:36;;;;;;;5.07;2.90;;;;;;;-146.19;100.00;58918.88;5067387;28;20061;-53
2022/05/23 01:58:05;;;;;;;4.28;2.90;;;;;;;-146.19;100.00;58918.88;5068550;28;20079;-51
2022/05/23 02:03:20;;;;;;;5.40;2.90;;;;;;;-146.19;100.00;58918.88;5064030;28;20438;-53
2022/05/23 02:05:48;;;;;;;6.05;2.85;;;;;;;-146.19;100.00;58918.88;5066559;28;20072;-54
2022/05/23 02:08:17;;;;;;;5.50;3.20;;;;;;;-146.19;100.00;58918.88;5068080;28;20069;-54
2022/05/23 02:10:45;;;;;;;4.47;3.10;;;;;;;-146.19;100.00;58918.88;5064072;28;20079;-54
2022/05/23 02:13:21;;;;;;;8.52;3.08;;;;;;;-146.19;100.00;58918.88;5063257;28;20542;-53
2022/05/23 02:15:50;;;;;;;9.23;3.47;;;;;;;-146.19;100.00;58918.88;5067803;28;20098;-55
2022/05/23 02:18:18;;;;;;;4.63;3.00;;;;;;;-146.19;100.00;58918.88;5066465;28;20484;-55
2022/05/23 02:20:46;;;;;;;7.25;3.20;;;;;;;-146.19;100.00;58918.88;5065395;28;20074;-52
2022/05/23 02:23:14;;;;;;;6.25;2.97;;;;;;;-146.19;100.00;58918.88;5069638;28;20067;-54
2022/05/23 02:25:43;;;;;;;4.38;2.92;;;;;;;-146.19;100.00;58918.88;5066642;28;20479;-51
2022/05/23 02:28:11;;;;;;;7.47;3.25;;;;;;;-146.19;100.00;58918.88;5065232;28;20470;-50
2022/05/23 02:30:41;;;;;;;5.93;3.30;;;;;;;-146.19;100.00;58918.88;5066870;28;20083;-52
2022/05/23 02:33:09;;;;;;;5.93;3.20;;;;;;;-146.19;100.00;58918.88;5068617;28;20068;-54
2022/05/23 02:35:37;;;;;;;5.18;2.90;;;;;;;-146.19;100.00;58918.88;5069804;28;20087;-54
2022/05/23 02:38:06;;;;;;;5.00;2.75;;;;;;;-146.19;100.00;58918.88;5070658;28;20068;-50
2022/05/23 02:40:34;;;;;;;5.82;2.90;;;;;;;-146.19;100.00;58918.88;5068495;28;20522;-52
2022/05/23 02:43:03;;;;;;;5.00;3.05;;;;;;;-146.19;100.00;58918.88;5068739;28;20056;-52
2022/05/23 02:45:31;;;;;;;5.20;2.92;;;;;;;-146.19;100.00;58918.88;5064082;28;20087;-54
2022/05/23 02:48:01;;;;;;;5.32;3.15;;;;;;;-146.19;100.00;58918.88;5067858;28;20060;-55
2022/05/23 02:50:29;;;;;;;6.87;3.10;;;;;;;-146.19;100.00;58918.88;5068531;28;20071;-51
2022/05/23 02:52:57;;;;;;;5.30;3.17;;;;;;;-146.19;100.00;58918.88;5064706;28;20071;-53
2022/05/23 02:55:26;;;;;;;4.43;3.15;;;;;;;-146.19;100.00;58918.88;5066748;28;20487;-54
2022/05/23 02:57:54;;;;;;;4.35;2.70;;;;;;;-146.19;100.00;58918.88;5066716;28;20072;-53
2022/05/23 03:00:22;;;;;;;6.60;3.28;;;;;;;-146.19;100.00;58918.88;5067581;28;20088;-53
2022/05/23 03:03:02;;;;;;;3.42;2.80;;;;;;;-146.19;100.00;58918.88;5066562;28;20065;-50
2022/05/23 03:05:33;;;;;;;3.90;2.70;;;;;;;-146.19;100.00;58918.88;5066758;28;20073;-48
2022/05/23 03:08:01;;;;;;;4.22;2.92;;;;;;;-146.19;100.00;58918.88;5061624;28;20063;-53
2022/05/23 03:10:30;;;;;;;7.88;3.05;;;;;;;-146.19;100.00;58918.88;5064310;28;20040;-53
2022/05/23 03:12:58;;;;;;;4.45;2.72;;;;;;;-146.19;100.00;58918.88;5059070;28;20045;-54
2022/05/23 03:15:27;;;;;;;3.40;2.70;;;;;;;-146.19;100.00;58918.88;5064106;28;20527;-53
2022/05/23 03:17:55;;;;;;;3.88;2.88;;;;;;;-146.19;100.00;58918.88;5061326;28;20459;-51
2022/05/23 03:20:24;;;;;;;4.60;2.90;;;;;;;-146.19;100.00;58918.88;5064858;28;20051;-54
2022/05/23 03:28:25;;;;;;;6.10;3.45;;;;;;;-146.19;100.00;58918.88;5060171;28;20541;-53
2022/05/23 03:30:54;;;;;;;6.43;3.13;;;;;;;-146.19;100.00;58918.88;5060335;28;20088;-53
2022/05/23 03:33:22;;;;;;;6.28;3.50;;;;;;;-146.19;100.00;58918.88;5063675;28;21513;-55
2022/05/23 03:35:50;;;;;;;4.90;3.10;;;;;;;-146.19;100.00;58918.88;5064780;28;20075;-51
2022/05/23 03:38:21;;;;;;;8.52;3.80;;;;;;;-146.19;100.00;58918.88;5060543;28;20131;-52
2022/05/23 03:40:49;;;;;;;6.22;3.55;;;;;;;-146.19;100.00;58918.88;5066024;28;20060;-53
2022/05/23 03:43:18;;;;;;;6.53;3.55;;;;;;;-146.19;100.00;58918.88;5066347;28;20067;-54
2022/05/23 03:45:46;;;;;;;7.88;3.28;;;;;;;-146.19;100.00;58918.88;5062048;28;20080;-52
2022/05/23 03:48:14;;;;;;;5.03;3.10;;;;;;;-146.19;100.00;58918.88;5063795;28;20064;-52
2022/05/23 03:50:43;;;;;;;5.78;3.50;;;;;;;-146.19;100.00;58918.88;5065811;28;20076;-50
2022/05/23 03:53:12;;;;;;;6.53;3.20;;;;;;;-146.19;100.00;58918.88;5068560;28;20072;-50
2022/05/23 03:55:41;;;;;;;5.18;3.15;;;;;;;-146.19;100.00;58918.88;5064488;28;20495;-53
2022/05/23 03:58:09;;;;;;;5.70;3.40;;;;;;;-146.19;100.00;58918.88;5065358;28;20076;-52
2022/05/23 04:00:38;;;;;;;4.35;3.70;;;;;;;-146.19;100.00;58918.88;5061641;28;20082;-52
2022/05/23 04:03:06;;;;;;;4.10;3.03;;;;;;;-146.19;100.00;58918.88;5063559;28;20522;-54
2022/05/23 04:05:34;;;;;;;6.47;3.78;;;;;;;-146.19;100.00;58918.88;5065067;28;20060;-53
2022/05/23 04:08:02;;;;;;;5.70;3.40;;;;;;;-146.19;100.00;58918.88;5062974;28;20065;-54
2022/05/23 04:10:31;;;;;;;7.00;3.53;;;;;;;-146.19;100.00;58918.88;5062386;28;20470;-52
2022/05/23 04:13:02;;;;;;;7.00;3.58;;;;;;;-146.19;100.00;58918.88;5064079;28;20107;-51
2022/05/23 04:15:30;;;;;;;5.55;3.67;;;;;;;-146.19;100.00;58918.88;5068544;28;20083;-53
2022/05/23 04:17:59;;;;;;;5.60;3.53;;;;;;;-146.19;100.00;58918.88;5064278;28;20086;-54
2022/05/23 04:20:27;;;;;;;6.05;3.65;;;;;;;-146.19;100.00;58918.88;5063047;28;20071;-51
2022/05/23 04:22:56;;;;;;;5.95;3.40;;;;;;;-146.19;100.00;58918.88;5061462;28;20068;-53
2022/05/23 04:25:24;;;;;;;5.95;3.20;;;;;;;-146.19;100.00;58918.88;5049957;28;20123;-53
2022/05/23 04:27:52;;;;;;;5.03;3.55;;;;;;;-146.19;100.00;58918.88;5059285;28;20072;-53
2022/05/23 04:30:22;;;;;;;7.38;3.65;;;;;;;-146.19;100.00;58918.88;5057002;28;20337;-54
2022/05/23 04:35:36;;;;;;;5.90;3.63;;;;;;;-146.19;100.00;58918.88;5058960;28;20454;-54
2022/05/23 04:38:04;;;;;;;6.03;3.55;;;;;;;-146.19;100.00;58918.88;5062201;28;20068;-55
2022/05/23 04:40:32;;;;;;;7.53;4.07;;;;;;;-146.19;100.00;58918.88;5059394;28;20068;-54
2022/05/23 04:43:01;;;;;;;6.20;3.63;;;;;;;-146.19;100.00;58918.88;5063030;28;20538;-55
2022/05/23 04:45:31;;;;;;;4.82;3.38;;;;;;;-146.19;100.00;58918.88;5063334;28;20040;-52
2022/05/23 04:50:45;;;;;;;5.55;3.63;;;;;;;-146.19;100.00;58918.88;5058698;28;20076;-54
2022/05/23 04:53:13;;;;;;;6.57;3.50;;;;;;;-146.19;100.00;58918.88;5064650;28;20286;-53
2022/05/23 04:55:43;;;;;;;6.50;3.47;;;;;;;-146.19;100.00;58918.88;5063465;28;20138;-53
2022/05/23 04:58:11;;;;;;;5.45;3.28;;;;;;;-146.19;100.00;58918.88;5066820;28;20102;-49
2022/05/23 05:00:42;;;;;;;5.35;3.03;;;;;;;-146.19;100.00;58918.88;5067602;28;20513;-47
2022/05/23 05:03:17;;;;;;;8.23;3.65;;;;;;;-146.19;100.00;58918.88;5065603;28;20060;-53
2022/05/23 05:05:45;;;;;;;5.93;3.40;;;;;;;-146.19;100.00;58918.88;5066749;28;20071;-53
2022/05/23 05:08:14;;;;;;;5.30;3.15;;;;;;;-146.19;100.00;58918.88;5067498;28;20056;-55
2022/05/23 05:10:42;;;;;;;6.13;3.28;;;;;;;-146.19;100.00;58918.88;5064494;28;20083;-53
2022/05/23 05:13:11;;;;;;;3.78;3.03;;;;;;;-146.19;100.00;58918.88;5063051;28;20498;-48
2022/05/23 05:15:40;;;;;;;5.93;2.90;;;;;;;-146.19;100.00;58918.88;5059387;28;20075;-51
2022/05/23 05:18:08;;;;;;;4.03;3.07;;;;;;;-146.19;100.00;58918.88;5057208;28;20064;-50
2022/05/23 05:20:36;;;;;;;8.38;2.88;;;;;;;-146.19;100.00;58918.88;5063679;28;20064;-55
2022/05/23 05:23:05;;;;;;;5.45;3.20;;;;;;;-146.19;100.00;58918.88;5062756;28;20063;-49
2022/05/23 05:25:33;;;;;;;6.70;3.05;;;;;;;-146.19;100.00;58918.88;5068574;28;20076;-55
2022/05/23 05:28:01;;;;;;;5.85;3.30;;;;;;;-146.19;100.00;58918.88;5067771;28;20083;-52
2022/05/23 05:30:30;;;;;;;5.68;3.00;;;;;;;-146.19;100.00;58918.88;5068883;28;20079;-46
2022/05/23 05:33:02;;;;;;;5.60;2.97;;;;;;;-146.19;100.00;58918.88;5065655;28;20067;-51
2022/05/23 05:35:33;;;;;;;7.20;3.20;;;;;;;-146.19;100.00;58918.88;5065930;28;20056;-53
2022/05/23 05:38:05;;;;;;;5.90;3.00;;;;;;;-146.19;100.00;58918.88;5071389;28;20071;-56
2022/05/23 05:40:35;;;;;;;7.28;3.20;;;;;;;-146.19;100.00;58918.88;5071247;28;20064;-50
2022/05/23 05:43:12;;;;;;;7.05;3.58;;;;;;;-146.19;100.00;58918.88;5071756;28;20098;-47
2022/05/23 05:45:45;;;;;;;4.18;2.80;;;;;;;-146.19;100.00;58918.88;5071981;28;20076;-53
2022/05/23 05:48:15;;;;;;;9.38;3.20;;;;;;;-146.19;100.00;58918.88;5070917;28;20066;-55
2022/05/23 05:50:46;;;;;;;3.83;3.08;;;;;;;-146.19;100.00;58918.88;5071166;28;20076;-55
2022/05/23 05:53:18;;;;;;;5.05;2.95;;;;;;;-146.19;100.00;58918.88;5065610;28;20083;-50
2022/05/23 05:55:46;;;;;;;7.45;3.60;;;;;;;-146.19;100.00;58918.88;5071371;28;20075;-54
2022/05/23 05:58:14;;;;;;;6.90;3.38;;;;;;;-146.19;100.00;58918.88;5071339;28;20522;-51
2022/05/23 06:00:48;;;;;;;4.97;3.05;;;;;;;-146.19;100.00;58918.88;5070943;28;20080;-52
2022/05/23 06:03:17;;;;;;;7.13;3.17;;;;;;;-146.19;100.00;58918.88;5070150;28;20075;-50
2022/05/23 06:11:26;;;;;;;6.30;3.05;;;;;;;-146.19;100.00;58918.88;5071008;28;20071;-56
2022/05/23 06:13:56;;;;;;;6.55;3.38;;;;;;;-146.19;100.00;58918.88;5071061;28;20064;-56
2022/05/23 06:16:25;;;;;;;4.88;3.30;;;;;;;-146.19;100.00;58918.88;5070394;28;20063;-54
2022/05/23 06:18:56;;;;;;;7.22;3.30;;;;;;;-146.19;100.00;58918.88;5070521;28;20483;-55
2022/05/23 06:21:25;;;;;;;6.65;3.72;;;;;;;-146.19;100.00;58918.88;5070777;28;20766;-53
2022/05/23 06:23:54;;;;;;;7.47;3.67;;;;;;;-146.19;100.00;58918.88;5070372;28;20071;-48
2022/05/23 06:26:26;;;;;;;9.27;4.00;;;;;;;-146.19;100.00;58918.88;5070575;28;20099;-54
2022/05/23 06:28:54;;;;;;;5.30;3.42;;;;;;;-146.19;100.00;58918.88;5068264;28;20312;-51
2022/05/23 06:31:23;;;;;;;6.05;3.50;;;;;;;-146.19;100.00;58918.88;5066450;28;20056;-54
2022/05/23 06:33:51;;;;;;;4.90;3.42;;;;;;;-146.19;100.00;58918.88;5067654;28;20085;-54
2022/05/23 06:36:21;;;;;;;5.93;3.55;;;;;;;-146.19;100.00;58918.88;5063558;28;20068;-54
2022/05/23 06:38:50;;;;;;;5.93;3.70;;;;;;;-146.19;100.00;58918.88;5069831;28;20071;-55
2022/05/23 06:41:18;;;;;;;7.93;4.05;;;;;;;-146.19;100.00;58918.88;5070232;28;20060;-50
2022/05/23 06:43:47;;;;;;;7.32;3.97;;;;;;;-146.19;100.00;58918.88;5068432;28;20088;-54
2022/05/23 06:46:33;;;;;;;7.18;3.60;;;;;;;-146.19;100.00;58918.88;5070831;28;20068;-50
2022/05/23 06:49:01;;;;;;;5.65;3.75;;;;;;;-146.19;100.00;58918.88;5069799;28;20067;-53
2022/05/23 06:51:31;;;;;;;6.70;4.07;;;;;;;-146.19;100.00;58918.88;5070550;28;20060;-52
2022/05/23 06:53:59;;;;;;;5.57;3.78;;;;;;;-146.19;100.00;58918.88;5073933;28;20079;-54
2022/05/23 06:56:29;;;;;;;8.27;3.83;;;;;;;-146.19;100.00;58918.88;5068705;28;20064;-52
2022/05/23 06:58:57;;;;;;;6.63;4.00;;;;;;;-146.19;100.00;58918.88;5069731;28;20075;-54
2022/05/23 07:01:25;;;;;;;6.80;3.67;;;;;;;-146.19;100.00;58918.88;5069108;28;20064;-47
2022/05/23 07:03:54;;;;;;;4.47;3.90;;;;;;;-146.19;100.00;58918.88;5071792;28;20078;-52
2022/05/23 07:12:23;;;;;;;6.18;3.95;;;;;;;-146.19;100.00;58918.88;5069490;28;20070;-53
2022/05/23 07:14:56;;;;;;;4.35;3.25;;;;;;;-146.19;100.00;58918.88;5069583;28;20683;-48
2022/05/23 07:17:25;;;;;;;8.07;3.90;;;;;;;-146.19;100.00;58918.88;5064993;28;20455;-50
2022/05/23 07:19:55;;;;;;;6.32;4.22;;;;;;;-146.19;100.00;58918.88;5070036;28;20064;-51
2022/05/23 07:22:23;;;;;;;8.55;4.75;;;;;;;-146.19;100.00;58918.88;5069618;28;20056;-49
2022/05/23 07:24:53;;;;;;;7.85;5.15;;;;;;;-146.19;100.00;58918.88;5070029;28;20084;-47
2022/05/23 07:27:25;;;;;;;9.93;5.30;;;;;;;-146.19;100.00;58918.88;5068546;28;20482;-50
2022/05/23 07:29:53;;;;;;;10.23;5.50;;;;;;;-146.19;100.00;58918.88;5064328;28;20086;-48
2022/05/23 07:32:21;;;;;;;7.95;5.00;;;;;;;-146.19;100.00;58918.88;5069459;28;20091;-52
2022/05/23 07:34:49;;;;;;;6.63;5.00;;;;;;;-146.19;100.00;58918.88;5063794;28;20068;-49
2022/05/23 07:37:18;;;;;;;8.77;5.72;;;;;;;-146.19;100.00;58918.88;5069732;28;20084;-47
2022/05/23 07:39:49;;;;;;;8.00;5.32;;;;;;;-146.19;100.00;58918.88;5069871;28;20106;-50
2022/05/23 07:42:19;;;;;;;7.63;4.95;;;;;;;-146.19;100.00;58918.88;5068552;28;20076;-49
2022/05/23 07:44:48;;;;;;;11.07;6.07;;;;;;;-146.19;100.00;58918.88;5079316;28;20075;-53
2022/05/23 07:47:16;;;;;;;8.23;5.93;;;;;;;-146.19;100.00;58918.88;5068774;28;20071;-51
2022/05/23 07:49:47;;;;;;;9.63;5.82;;;;;;;-146.19;100.00;58918.88;5069092;28;20075;-54
2022/05/23 07:52:15;;;;;;;9.63;6.40;;;;;;;-146.19;100.00;58918.88;5067920;28;20057;-50
2022/05/23 08:00:32;;;;;;;11.55;6.20;;;;;;;-146.19;100.00;58918.88;5064348;28;20062;-51
2022/05/23 08:03:03;;;;;;;11.55;5.85;;;;;;;-146.19;100.00;58918.88;5068803;28;20063;-51
2022/05/23 08:05:32;;;;;;;10.32;5.88;;;;;;;-146.19;100.00;58918.88;5069261;28;20156;-53
2022/05/23 08:08:00;;;;;;;10.43;5.75;;;;;;;-146.19;100.00;58918.88;5068805;28;20057;-53
2022/05/23 08:10:28;;;;;;;7.75;6.25;;;;;;;-146.19;100.00;58918.88;5068988;28;20060;-47
2022/05/23 08:12:59;;;;;;;6.85;5.60;;;;;;;-146.19;100.00;58918.88;5064507;28;20103;-51
2022/05/23 08:15:29;;;;;;;7.55;5.55;;;;;;;-146.19;100.00;58918.88;5069411;28;20495;-54
2022/05/23 08:17:57;;;;;;;10.43;6.32;;;;;;;-146.19;100.00;58918.88;5068732;28;20139;-49
2022/05/23 08:20:26;;;;;;;11.05;5.70;;;;;;;-146.19;100.00;58918.88;5068509;28;20064;-47
2022/05/23 08:22:57;;;;;;;7.30;6.28;;;;;;;-146.19;100.00;58918.88;5068369;28;20511;-49
2022/05/23 08:25:26;;;;;;;12.60;7.20;;;;;;;-146.19;100.00;58918.88;5068708;28;20482;-50
2022/05/23 08:27:54;;;;;;;11.07;6.30;;;;;;;-146.19;100.00;58918.88;5068634;28;20069;-50
2022/05/23 08:30:24;;;;;;;11.15;5.80;;;;;;;-146.19;100.00;58918.88;5065699;28;20088;-49
2022/05/23 08:32:52;;;;;;;7.07;5.85;;;;;;;-146.19;100.00;58918.88;5068240;28;20459;-49
2022/05/23 08:35:21;;;;;;;7.80;5.53;;;;;;;-146.19;100.00;58918.88;5068362;28;20454;-49
2022/05/23 08:37:54;;;;;;;7.45;5.10;;;;;;;-146.19;100.00;58918.88;5067325;28;20060;-47
2022/05/23 08:40:31;;;;;;;6.77;5.17;;;;;;;-146.19;100.00;58918.88;5064837;28;20057;-47
2022/05/23 08:43:00;;;;;;;7.93;5.43;;;;;;;-146.19;100.00;58918.88;5061766;28;20080;-50
2022/05/23 08:45:31;;;;;;;5.63;4.70;;;;;;;-146.19;100.00;58918.88;5062866;28;20577;-52
2022/05/23 08:48:12;;;;;;;7.57;4.90;;;;;;;-146.19;100.00;58918.88;5061549;28;20115;-53
2022/05/23 08:50:48;;;;;;;10.00;4.80;;;;;;;-146.19;100.00;58918.88;5070020;28;20072;-52
2022/05/23 08:53:19;;;;;;;7.85;5.47;;;;;;;-146.19;100.00;58918.88;5067472;28;20068;-52
2022/05/23 08:55:50;;;;;;;9.25;5.07;;;;;;;-146.19;100.00;58918.88;5061075;28;20079;-47
2022/05/23 08:58:19;;;;;;;;;;;;;;;-146.19;100.00;58918.88;5065553;28;20063;-49
2022/05/23 09:00:52;;;;;;;6.57;4.30;;;;;;;-146.19;100.00;58918.88;5065920;28;19967;-54
2022/05/23 09:03:24;;;;;;;6.57;4.90;;;;;;;-146.19;100.00;58918.88;5066336;28;21393;-47
2022/05/23 09:05:55;;;;;;;6.82;4.47;;;;;;;-146.19;100.00;58918.88;5060062;28;20473;-52
2022/05/23 09:08:46;;;;;;;5.68;4.40;;;;;;;-146.19;100.00;58918.88;5063707;28;20060;-53
2022/05/23 09:11:22;;;;;;;6.95;4.50;;;;;;;-146.19;100.00;58918.88;5059273;28;20448;-51
2022/05/23 09:13:51;;;;;;;11.20;4.43;;;;;;;-146.19;100.00;58918.88;5062116;28;20072;-50
2022/05/23 09:16:21;;;;;;;6.65;4.47;;;;;;;-146.19;100.00;58918.88;5060763;28;20066;-48
2022/05/23 09:18:57;;;;;;;8.75;4.05;;;;;;;-146.19;100.00;58918.88;5064021;28;20526;-51
2022/05/23 09:22:12;;;;;;;7.95;4.10;;;;;;;-146.19;100.00;58918.88;5066790;28;20448;-51
2022/05/23 09:24:16;;;;;;;5.63;4.10;;;;;;;-146.19;100.00;58918.88;5064346;28;20518;-52
2022/05/23 09:26:45;;;;;;;6.40;3.53;;;;;;;-146.19;100.00;58918.88;5062777;28;20072;-56
2022/05/23 09:29:14;;;;;;;5.25;3.72;;;;;;;-146.19;100.00;58918.88;5066586;28;20497;-51
2022/05/23 09:31:49;;;;;;;4.95;3.35;;;;;;;-146.19;100.00;58918.88;5060464;28;20479;-54
2022/05/23 09:34:29;;;;;;;5.82;3.30;;;;;;;-146.19;100.00;58918.88;5066355;28;20067;-50
2022/05/23 09:36:58;;;;;;;5.00;3.05;;;;;;;-146.19;100.00;58918.88;5063370;28;20084;-54
2022/05/23 09:39:29;;;;;;;4.78;2.92;;;;;;;-146.19;100.00;58918.88;5063710;28;20080;-52
2022/05/23 09:47:49;;;;;;;4.85;3.20;;;;;;;-146.19;100.00;58918.88;5063932;28;20075;-55
2022/05/23 09:50:35;;;;;;;6.28;2.80;;;;;;;-146.19;100.00;58918.88;5064459;28;20064;-54
2022/05/23 09:53:06;;;;;;;6.70;2.40;;;;;;;-146.19;100.00;58918.88;5054742;28;20060;-55
2022/05/23 09:55:37;;;;;;;4.65;2.60;;;;;;;-146.19;100.00;58918.88;5065044;28;20830;-51
2022/05/23 09:58:08;;;;;;;6.25;2.58;;;;;;;-146.19;100.00;58918.88;5065130;28;20545;-58
2022/05/23 10:00:44;;;;;;;6.13;2.42;;;;;;;-146.19;100.00;58918.88;5063654;28;20077;-54
2022/05/23 10:03:20;;;;;;;6.45;2.72;;;;;;;-146.19;100.00;58918.88;5064017;28;20428;-52
2022/05/23 10:05:50;;;;;;;7.43;2.53;;;;;;;-146.19;100.00;58918.88;5066701;28;20056;-57
2022/05/23 10:08:33;;;;;;;7.50;2.60;;;;;;;-146.19;100.00;58918.88;5066748;28;20067;-54
2022/05/23 10:11:03;;;;;;;6.57;2.75;;;;;;;-146.19;100.00;58918.88;5065824;28;20071;-53
2022/05/23 10:13:33;;;;;;;8.32;2.47;;;;;;;-146.19;100.00;58918.88;5066566;28;20076;-54
2022/05/23 10:16:11;;;;;;;7.30;2.38;;;;;;;-146.19;100.00;58918.88;5059300;28;20463;-50
2022/05/23 10:18:47;;;;;;;6.00;2.63;;;;;;;-146.19;100.00;58918.88;5067682;28;20297;-51
2022/05/23 10:21:26;;;;;;;6.68;1.92;;;;;;;-146.19;100.00;58918.88;5066765;28;20067;-50
2022/05/23 10:24:01;;;;;;;5.50;2.10;;;;;;;-146.19;100.00;58918.88;5063612;28;20452;-51
2022/05/23 10:26:33;;;;;;;6.50;2.17;;;;;;;-146.19;100.00;58918.88;5067579;28;20084;-49
2022/05/23 10:29:07;;;;;;;6.35;1.90;;;;;;;-146.19;100.00;58918.88;5069412;28;20541;-50
2022/05/23 10:31:38;;;;;;;6.35;2.10;;;;;;;-146.19;100.00;58918.88;5067426;28;20060;-53
2022/05/23 10:34:13;;;;;;;6.32;2.15;;;;;;;-146.19;100.00;58918.88;5066506;28;20091;-47
2022/05/23 10:36:43;;;;;;;6.00;2.17;;;;;;;-146.19;100.00;58918.88;5062709;28;20159;-49
2022/05/23 10:42:11;;;;;;;3.92;2.00;;;;;;;-146.19;100.00;58918.88;5066152;28;20519;-51
2022/05/23 10:45:21;;;;;;;8.55;2.10;;;;;;;-146.19;100.00;58918.88;5067558;28;20079;-55
2022/05/23 10:47:59;;;;;;;7.05;2.40;;;;;;;-146.19;100.00;58918.88;5067991;28;20067;-54
2022/05/23 10:50:34;;;;;;;5.55;2.00;;;;;;;-146.19;100.00;58918.88;5064635;28;20204;-54
2022/05/23 10:53:09;;;;;;;7.15;2.03;;;;;;;-146.19;100.00;58918.88;5067232;28;20060;-53
2022/05/23 10:55:41;;;;;;;3.60;2.08;;;;;;;-146.19;100.00;58918.88;5068840;28;20068;-50
2022/05/23 10:58:17;;;;;;;5.80;2.22;;;;;;;-146.19;100.00;58918.88;5068103;28;20427;-52
2022/05/23 11:00:52;;;;;;;9.75;2.40;;;;;;;-146.19;100.00;58918.88;5066055;28;20076;-51
2022/05/23 11:03:28;;;;;;;4.93;2.30;;;;;;;-146.19;100.00;58918.88;5062131;28;20299;-53
2022/05/23 11:06:01;;;;;;;5.13;2.40;;;;;;;-146.19;100.00;58918.88;5065501;28;20072;-53
2022/05/23 11:08:41;;;;;;;5.72;2.50;;;;;;;-146.19;100.00;58918.88;5070113;28;20060;-54
2022/05/23 11:11:13;;;;;;;6.88;2.20;;;;;;;-146.19;100.00;58918.88;5067025;28;20060;-56
2022/05/23 11:13:53;;;;;;;5.20;2.13;;;;;;;-146.19;100.00;58918.88;5067931;28;20067;-53
2022/05/23 11:16:23;;;;;;;;;;;;;;;-146.19;100.00;58918.88;5064404;28;20064;-52
2022/05/23 11:19:03;;;;;;;4.95;2.20;;;;;;;-146.19;100.00;58918.88;5066543;28;19956;-53
2022/05/23 11:21:39;;;;;;;6.40;2.53;;;;;;;-146.19;100.00;58918.88;5065994;28;21558;-53
2022/05/23 11:24:10;;;;;;;10.57;2.50;;;;;;;-146.19;100.00;58918.88;5066979;28;20082;-48
2022/05/23 11:26:42;;;;;;;7.55;2.33;;;;;;;-146.19;100.00;58918.88;5059832;28;20064;-49
2022/05/23 11:34:55;;;;;;;6.60;2.47;;;;;;;-146.19;100.00;58918.88;5061257;28;20079;-52
2022/05/23 11:37:47;;;;;;;6.88;2.38;;;;;;;-146.19;100.00;58918.88;5062750;28;20071;-51
2022/05/23 11:40:48;;;;;;;5.72;2.55;;;;;;;-146.19;100.00;58918.88;5061222;28;20056;-48
2022/05/23 11:43:17;;;;;;;5.82;2.50;;;;;;;-146.19;100.00;58918.88;5064183;28;20068;-53
2022/05/23 11:46:02;;;;;;;6.57;2.15;;;;;;;-146.19;100.00;58918.88;5066297;28;20083;-53
2022/05/23 11:48:48;;;;;;;5.65;2.45;;;;;;;-146.19;100.00;58918.88;5063869;28;21414;-51
2022/05/23 11:51:25;;;;;;;8.13;2.67;;;;;;;-146.19;100.00;58918.88;5062794;28;20056;-51
2022/05/23 11:54:06;;;;;;;5.10;2.50;;;;;;;-146.19;100.00;58918.88;5065944;28;20068;-48
2022/05/23 11:56:55;;;;;;;5.10;2.38;;;;;;;-146.19;100.00;58918.88;5063550;28;20075;-54
2022/05/23 12:00:08;;;;;;;4.13;2.30;;;;;;;-146.19;100.00;58918.88;5065341;28;20556;-48
2022/05/23 12:02:39;;;;;;;5.63;2.17;;;;;;;-146.19;100.00;58918.88;5060319;28;20673;-54
2022/05/23 12:05:14;;;;;;;5.80;2.30;;;;;;;-146.19;100.00;58918.88;5065760;28;20072;-53
2022/05/23 12:08:02;;;;;;;5.57;2.25;;;;;;;-146.19;100.00;58918.88;5065447;28;20531;-54
2022/05/23 12:10:59;;;;;;;6.68;2.15;;;;;;;-146.19;100.00;58918.88;5065950;28;20060;-54
2022/05/23 12:13:38;;;;;;;8.73;2.42;;;;;;;-146.19;100.00;58918.88;5061908;28;20092;-49
2022/05/23 12:16:45;;;;;;;4.47;2.30;;;;;;;-146.19;100.00;58918.88;5063267;28;20174;-52
2022/05/23 12:19:22;;;;;;;8.10;2.80;;;;;;;-146.19;100.00;58918.88;5063315;28;20481;-58
2022/05/23 12:21:51;;;;;;;6.32;2.47;;;;;;;-146.19;100.00;58918.88;5066936;28;20072;-51
2022/05/23 12:24:28;;;;;;;7.70;2.70;;;;;;;-146.19;100.00;58918.88;5064286;28;20590;-55